createdAt,value
2017-10-27T00:00:12.730Z,13.70
2017-10-27T00:02:40.278Z,13.70
2017-10-27T00:05:07.839Z,13.70
2017-10-27T00:07:35.380Z,13.70
2017-10-27T00:10:03.656Z,13.60
2017-10-27T00:12:31.428Z,13.60
2017-10-27T00:14:58.961Z,13.50
2017-10-27T00:17:27.291Z,13.50
2017-10-27T00:19:54.846Z,13.50
2017-10-27T00:22:22.429Z,13.60
2017-10-27T00:24:49.986Z,13.50
2017-10-27T00:27:17.540Z,13.40
2017-10-27T00:29:45.167Z,13.50
2017-10-27T00:32:12.723Z,13.50
2017-10-27T00:34:40.339Z,13.50
2017-10-27T00:37:07.869Z,13.50
2017-10-27T00:39:35.409Z,13.50
2017-10-27T00:42:03.025Z,13.50
2017-10-27T00:44:31.434Z,13.50
2017-10-27T00:46:59.016Z,13.50
2017-10-27T00:49:26.759Z,13.40
2017-10-27T00:51:54.453Z,13.40
2017-10-27T00:54:22.209Z,13.40
2017-10-27T00:56:49.922Z,13.40
2017-10-27T00:59:17.489Z,13.30
2017-10-27T01:01:45.031Z,13.30
2017-10-27T01:04:13.397Z,13.20
2017-10-27T01:06:40.992Z,13.20
2017-10-27T01:09:08.749Z,13.20
2017-10-27T01:11:36.318Z,13.20
2017-10-27T01:14:03.874Z,13.20
2017-10-27T01:16:31.468Z,13.20
2017-10-27T01:18:59.091Z,13.20
2017-10-27T01:21:26.608Z,13.10
2017-10-27T01:23:54.914Z,13.20
2017-10-27T01:26:22.590Z,13.20
2017-10-27T01:28:50.114Z,13.20
2017-10-27T01:31:18.439Z,13.10
2017-10-27T01:33:46.126Z,13.10
2017-10-27T01:36:13.685Z,13.10
2017-10-27T01:38:41.206Z,13.00
2017-10-27T01:41:08.958Z,13.00
2017-10-27T01:43:36.619Z,13.10
2017-10-27T01:46:04.278Z,13.00
2017-10-27T01:48:31.823Z,13.10
2017-10-27T01:50:59.451Z,13.10
2017-10-27T01:53:26.994Z,13.10
2017-10-27T01:55:54.556Z,13.00
2017-10-27T01:58:22.123Z,13.00
2017-10-27T02:00:50.550Z,13.00
2017-10-27T02:03:18.127Z,13.10
2017-10-27T02:05:45.649Z,13.00
2017-10-27T02:08:13.292Z,13.00
2017-10-27T02:10:41.630Z,13.00
2017-10-27T02:13:09.480Z,12.90
2017-10-27T02:15:37.012Z,12.90
2017-10-27T02:18:04.595Z,12.80
2017-10-27T02:20:32.139Z,12.80
2017-10-27T02:22:59.701Z,12.70
2017-10-27T02:25:27.280Z,12.80
2017-10-27T02:27:54.842Z,12.80
2017-10-27T02:30:22.373Z,12.80
2017-10-27T02:32:50.145Z,12.70
2017-10-27T02:35:17.704Z,12.70
2017-10-27T02:37:45.338Z,12.60
2017-10-27T02:40:12.896Z,12.70
2017-10-27T02:42:40.603Z,12.60
2017-10-27T02:45:08.116Z,12.60
2017-10-27T02:47:35.714Z,12.60
2017-10-27T02:50:03.258Z,12.50
2017-10-27T02:52:30.769Z,12.50
2017-10-27T02:54:59.103Z,12.50
2017-10-27T02:57:26.639Z,12.50
2017-10-27T02:59:54.237Z,12.50
2017-10-27T03:02:21.806Z,12.50
2017-10-27T03:04:49.421Z,12.50
2017-10-27T03:07:16.985Z,12.50
2017-10-27T03:09:44.720Z,12.40
2017-10-27T03:12:12.277Z,12.30
2017-10-27T03:14:40.569Z,12.30
2017-10-27T03:17:08.230Z,12.30
2017-10-27T03:19:35.827Z,12.40
2017-10-27T03:22:04.130Z,12.40
2017-10-27T03:24:32.451Z,12.30
2017-10-27T03:27:00.045Z,12.30
2017-10-27T03:29:27.573Z,12.30
2017-10-27T03:31:55.422Z,12.30
2017-10-27T03:34:22.932Z,12.30
2017-10-27T03:36:50.537Z,12.20
2017-10-27T03:39:18.118Z,12.20
2017-10-27T03:41:45.653Z,12.10
2017-10-27T03:44:13.188Z,12.10
2017-10-27T03:46:41.536Z,12.00
2017-10-27T03:49:09.070Z,12.00
2017-10-27T03:51:36.593Z,12.00
2017-10-27T03:54:04.151Z,12.00
2017-10-27T03:56:31.716Z,12.00
2017-10-27T03:58:59.264Z,12.00
2017-10-27T04:01:26.857Z,12.00
2017-10-27T04:03:54.403Z,12.00
2017-10-27T04:06:21.975Z,12.10
2017-10-27T04:08:49.701Z,12.00
2017-10-27T04:11:17.883Z,12.00
2017-10-27T04:13:45.426Z,12.00
2017-10-27T04:16:13.081Z,12.00
2017-10-27T04:18:41.885Z,12.10
2017-10-27T04:21:10.341Z,12.10
2017-10-27T04:23:38.843Z,12.10
2017-10-27T04:26:06.411Z,12.00
2017-10-27T04:28:33.969Z,12.00
2017-10-27T04:31:01.499Z,12.10
2017-10-27T04:33:29.908Z,12.10
2017-10-27T04:35:57.461Z,12.10
2017-10-27T04:38:25.284Z,12.10
2017-10-27T04:40:53.600Z,12.10
2017-10-27T04:43:21.136Z,12.00
2017-10-27T04:45:49.481Z,12.10
2017-10-27T04:48:17.033Z,12.10
2017-10-27T04:50:45.351Z,12.10
2017-10-27T04:53:13.013Z,12.10
2017-10-27T04:55:40.692Z,12.10
2017-10-27T04:58:08.265Z,12.10
2017-10-27T05:00:35.882Z,12.00
2017-10-27T05:03:03.461Z,12.00
2017-10-27T05:05:30.980Z,12.00
2017-10-27T05:07:59.361Z,11.90
2017-10-27T05:10:26.900Z,11.90
2017-10-27T05:12:54.446Z,11.80
2017-10-27T05:15:22.008Z,11.80
2017-10-27T05:17:55.235Z,11.90
2017-10-27T05:20:29.226Z,11.90
2017-10-27T05:23:02.400Z,11.90
2017-10-27T05:25:30.119Z,11.80
2017-10-27T05:27:58.439Z,11.80
2017-10-27T05:30:26.004Z,11.80
2017-10-27T05:32:53.596Z,11.90
2017-10-27T05:35:21.183Z,11.90
2017-10-27T05:37:48.736Z,11.90
2017-10-27T05:40:16.295Z,11.90
2017-10-27T05:42:43.813Z,11.90
2017-10-27T05:45:12.101Z,11.90
2017-10-27T05:47:40.428Z,11.90
2017-10-27T05:50:07.986Z,11.90
2017-10-27T05:52:35.621Z,11.90
2017-10-27T05:55:03.177Z,11.80
2017-10-27T05:57:30.741Z,11.80
2017-10-27T05:59:58.361Z,11.90
2017-10-27T06:02:26.762Z,11.80
2017-10-27T06:04:54.341Z,11.80
2017-10-27T06:07:21.897Z,11.80
2017-10-27T06:09:49.646Z,11.80
2017-10-27T06:12:17.244Z,11.80
2017-10-27T06:14:44.798Z,11.80
2017-10-27T06:17:12.379Z,11.80
2017-10-27T06:19:40.062Z,11.70
2017-10-27T06:22:08.382Z,11.70
2017-10-27T06:24:35.957Z,11.70
2017-10-27T06:27:03.551Z,11.70
2017-10-27T06:29:31.893Z,11.60
2017-10-27T06:31:59.650Z,11.60
2017-10-27T06:34:27.197Z,11.60
2017-10-27T06:36:54.794Z,11.60
2017-10-27T06:39:22.479Z,11.60
2017-10-27T06:41:50.826Z,11.60
2017-10-27T06:44:18.352Z,11.60
2017-10-27T06:46:45.901Z,11.60
2017-10-27T06:49:13.456Z,11.70
2017-10-27T06:51:41.006Z,11.70
2017-10-27T06:54:08.659Z,11.70
2017-10-27T06:56:36.299Z,11.60
2017-10-27T06:59:04.601Z,11.70
2017-10-27T07:01:32.348Z,11.70
2017-10-27T07:03:59.936Z,11.70
2017-10-27T07:06:27.509Z,11.70
2017-10-27T07:08:55.148Z,11.80
2017-10-27T07:11:22.693Z,11.80
2017-10-27T07:13:50.239Z,11.90
2017-10-27T07:16:18.558Z,12.00
2017-10-27T07:18:46.105Z,12.00
2017-10-27T07:21:13.663Z,11.90
2017-10-27T07:23:41.229Z,11.90
2017-10-27T07:26:08.769Z,11.90
2017-10-27T07:28:36.484Z,11.90
2017-10-27T07:31:04.190Z,12.00
2017-10-27T07:33:31.731Z,12.10
2017-10-27T07:35:59.417Z,12.10
2017-10-27T07:38:27.076Z,12.10
2017-10-27T07:40:54.592Z,12.10
2017-10-27T07:43:23.006Z,12.20
2017-10-27T07:45:50.767Z,12.20
2017-10-27T07:48:18.285Z,12.20
2017-10-27T07:50:46.606Z,12.10
2017-10-27T07:53:14.163Z,12.10
2017-10-27T07:55:41.729Z,12.10
2017-10-27T07:58:09.275Z,12.10
2017-10-27T08:00:36.828Z,12.10
2017-10-27T08:03:04.351Z,12.20
2017-10-27T08:05:31.971Z,12.30
2017-10-27T08:08:00.882Z,12.20
2017-10-27T08:10:28.430Z,12.30
2017-10-27T08:12:55.985Z,12.30
2017-10-27T08:15:23.732Z,12.30
2017-10-27T08:17:51.314Z,12.40
2017-10-27T08:20:18.944Z,12.50
2017-10-27T08:22:46.487Z,12.50
2017-10-27T08:25:14.028Z,12.50
2017-10-27T08:27:42.336Z,12.30
2017-10-27T08:30:10.006Z,12.30
2017-10-27T08:32:37.552Z,12.40
2017-10-27T08:35:05.431Z,12.50
2017-10-27T08:37:33.181Z,12.40
2017-10-27T08:40:00.756Z,12.30
2017-10-27T08:42:28.314Z,12.30
2017-10-27T08:44:55.901Z,12.30
2017-10-27T08:47:23.455Z,12.40
2017-10-27T08:49:51.001Z,12.40
2017-10-27T08:52:18.560Z,12.40
2017-10-27T08:54:46.114Z,12.50
2017-10-27T08:57:13.656Z,12.50
2017-10-27T08:59:41.240Z,12.50
2017-10-27T09:02:08.803Z,12.50
2017-10-27T09:04:37.134Z,12.80
2017-10-27T09:07:04.939Z,12.80
2017-10-27T09:09:33.263Z,12.90
2017-10-27T09:12:00.819Z,12.90
2017-10-27T09:14:28.393Z,13.00
2017-10-27T09:16:55.938Z,13.00
2017-10-27T09:19:23.481Z,13.00
2017-10-27T09:21:51.911Z,12.90
2017-10-27T09:24:19.451Z,12.80
2017-10-27T09:26:47.003Z,12.80
2017-10-27T09:29:14.562Z,12.70
2017-10-27T09:31:42.350Z,12.70
2017-10-27T09:34:09.866Z,12.70
2017-10-27T09:36:37.641Z,12.70
2017-10-27T09:39:05.311Z,12.60
2017-10-27T09:41:32.814Z,12.60
2017-10-27T09:44:00.380Z,12.70
2017-10-27T09:46:28.711Z,13.10
2017-10-27T09:48:56.289Z,13.10
2017-10-27T09:51:24.017Z,13.20
2017-10-27T09:53:51.532Z,13.20
2017-10-27T09:56:19.860Z,13.20
2017-10-27T09:58:47.454Z,13.20
2017-10-27T10:01:14.997Z,13.30
2017-10-27T10:03:42.563Z,13.30
2017-10-27T10:06:10.929Z,13.10
2017-10-27T10:08:38.461Z,13.10
2017-10-27T10:11:06.057Z,13.30
2017-10-27T10:13:33.931Z,13.20
2017-10-27T10:16:01.491Z,13.40
2017-10-27T10:18:29.621Z,13.40
2017-10-27T10:20:57.344Z,13.20
2017-10-27T10:23:25.646Z,13.00
2017-10-27T10:25:53.198Z,13.00
2017-10-27T10:28:21.079Z,13.00
2017-10-27T10:30:48.593Z,13.00
2017-10-27T10:33:16.962Z,12.90
2017-10-27T10:35:45.493Z,12.80
2017-10-27T10:38:13.066Z,12.80
2017-10-27T10:40:40.629Z,12.80
2017-10-27T10:43:08.253Z,13.00
2017-10-27T10:45:35.833Z,13.10
2017-10-27T10:48:03.351Z,13.10
2017-10-27T10:50:31.852Z,13.40
2017-10-27T10:52:59.405Z,13.40
2017-10-27T10:55:27.083Z,13.30
2017-10-27T10:57:54.700Z,13.20
2017-10-27T11:00:23.062Z,13.30
2017-10-27T11:02:50.635Z,13.30
2017-10-27T11:05:18.973Z,13.50
2017-10-27T11:07:51.789Z,13.50
2017-10-27T11:10:19.358Z,13.70
2017-10-27T11:12:46.943Z,13.90
2017-10-27T11:15:14.544Z,13.90
2017-10-27T11:17:42.097Z,13.80
2017-10-27T11:20:09.607Z,13.60
2017-10-27T11:22:37.291Z,13.60
2017-10-27T11:25:04.878Z,13.60
2017-10-27T11:27:32.421Z,13.70
2017-10-27T11:29:59.955Z,13.50
2017-10-27T11:32:27.527Z,13.60
2017-10-27T11:34:55.106Z,13.60
2017-10-27T11:37:22.663Z,13.60
2017-10-27T11:39:50.441Z,13.70
2017-10-27T11:42:17.973Z,13.60
2017-10-27T11:44:45.621Z,13.50
2017-10-27T11:47:13.201Z,13.50
2017-10-27T11:49:41.186Z,13.50
2017-10-27T11:52:08.845Z,13.40
2017-10-27T11:54:36.470Z,13.20
2017-10-27T11:57:04.034Z,13.20
2017-10-27T11:59:31.599Z,13.20
2017-10-27T12:01:59.173Z,13.30
2017-10-27T12:04:26.728Z,13.40
2017-10-27T12:06:54.292Z,13.60
2017-10-27T12:09:21.994Z,13.80
2017-10-27T12:11:49.637Z,14.30
2017-10-27T12:14:17.942Z,14.30
2017-10-27T12:16:45.648Z,14.30
2017-10-27T12:19:13.279Z,14.10
2017-10-27T12:21:40.828Z,14.00
2017-10-27T12:24:08.529Z,14.10
2017-10-27T12:26:36.053Z,14.00
2017-10-27T12:29:03.597Z,13.80
2017-10-27T12:31:31.282Z,13.80
2017-10-27T12:33:58.840Z,13.80
2017-10-27T12:36:26.419Z,14.00
2017-10-27T12:38:54.000Z,14.10
2017-10-27T12:41:21.529Z,14.20
2017-10-27T12:43:49.080Z,14.30
2017-10-27T12:46:16.832Z,14.40
2017-10-27T12:48:44.391Z,14.20
2017-10-27T12:51:11.961Z,14.10
2017-10-27T12:53:39.571Z,13.90
2017-10-27T12:56:07.947Z,13.50
2017-10-27T12:58:36.290Z,13.40
2017-10-27T13:01:03.839Z,13.30
2017-10-27T13:03:31.376Z,13.30
2017-10-27T13:05:58.889Z,13.20
2017-10-27T13:08:27.511Z,13.10
2017-10-27T13:10:55.112Z,13.10
2017-10-27T13:13:22.738Z,13.20
2017-10-27T13:15:50.598Z,13.10
2017-10-27T13:18:18.155Z,13.20
2017-10-27T13:20:45.759Z,13.10
2017-10-27T13:23:13.317Z,13.20
2017-10-27T13:25:40.928Z,13.30
2017-10-27T13:28:20.481Z,13.20
2017-10-27T13:30:48.232Z,13.20
2017-10-27T13:33:15.774Z,13.30
2017-10-27T13:35:43.325Z,13.30
2017-10-27T13:38:11.662Z,13.20
2017-10-27T13:40:39.195Z,13.20
2017-10-27T13:43:06.789Z,13.30
2017-10-27T13:45:34.321Z,13.40
2017-10-27T13:48:01.854Z,13.50
2017-10-27T13:50:30.193Z,13.50
2017-10-27T13:52:57.723Z,13.30
2017-10-27T13:55:25.301Z,13.20
2017-10-27T13:57:52.906Z,13.10
2017-10-27T14:00:20.501Z,13.00
2017-10-27T14:02:48.049Z,13.00
2017-10-27T14:05:15.786Z,12.90
2017-10-27T14:07:43.337Z,12.90
2017-10-27T14:10:10.902Z,12.80
2017-10-27T14:12:38.563Z,12.80
2017-10-27T14:15:06.098Z,12.70
2017-10-27T14:17:33.677Z,12.80
2017-10-27T14:20:01.256Z,12.70
2017-10-27T14:22:28.862Z,12.70
2017-10-27T14:24:57.993Z,12.70
2017-10-27T14:27:25.534Z,12.60
2017-10-27T14:29:53.069Z,12.60
2017-10-27T14:32:21.569Z,12.60
2017-10-27T14:34:49.173Z,12.60
2017-10-27T14:37:16.694Z,12.60
2017-10-27T14:39:44.265Z,12.60
2017-10-27T14:42:11.848Z,12.60
2017-10-27T14:44:39.429Z,12.60
2017-10-27T14:47:07.099Z,12.70
2017-10-27T14:49:35.169Z,12.60
2017-10-27T14:52:03.524Z,12.70
2017-10-27T14:54:31.070Z,12.70
2017-10-27T14:56:58.677Z,12.70
2017-10-27T14:59:26.972Z,12.70
2017-10-27T15:01:55.250Z,12.70
2017-10-27T15:04:22.782Z,12.80
2017-10-27T15:06:51.120Z,13.00
2017-10-27T15:09:18.660Z,12.90
2017-10-27T15:11:46.229Z,13.00
2017-10-27T15:14:13.810Z,13.00
2017-10-27T15:16:41.379Z,13.00
2017-10-27T15:19:08.946Z,13.00
2017-10-27T15:21:37.396Z,13.00
2017-10-27T15:24:04.946Z,13.00
2017-10-27T15:26:32.502Z,13.00
2017-10-27T15:29:00.062Z,13.00
2017-10-27T15:31:27.625Z,12.90
2017-10-27T15:33:55.296Z,12.90
2017-10-27T15:36:22.911Z,12.90
2017-10-27T15:38:51.003Z,12.90
2017-10-27T15:41:18.538Z,12.90
2017-10-27T15:43:46.140Z,12.90
2017-10-27T15:46:13.737Z,12.90
2017-10-27T15:48:41.319Z,12.90
2017-10-27T15:51:08.901Z,12.90
2017-10-27T15:53:36.485Z,12.90
2017-10-27T15:56:04.094Z,12.90
2017-10-27T15:58:31.686Z,12.80
2017-10-27T16:01:00.393Z,12.80
2017-10-27T16:03:27.998Z,12.80
2017-10-27T16:05:55.622Z,12.80
2017-10-27T16:08:23.953Z,12.70
2017-10-27T16:10:51.598Z,12.70
2017-10-27T16:13:19.163Z,12.70
2017-10-27T16:15:46.771Z,12.60
2017-10-27T16:18:14.367Z,12.60
2017-10-27T16:20:41.932Z,12.60
2017-10-27T16:23:09.964Z,12.50
2017-10-27T16:25:38.257Z,12.50
2017-10-27T16:28:05.830Z,12.50
2017-10-27T16:30:33.370Z,12.50
2017-10-27T16:33:00.913Z,12.50
2017-10-27T16:35:29.259Z,12.50
2017-10-27T16:37:56.832Z,12.50
2017-10-27T16:40:24.405Z,12.50
2017-10-27T16:42:52.739Z,12.50
2017-10-27T16:45:20.375Z,12.50
2017-10-27T16:47:48.121Z,12.50
2017-10-27T16:50:16.426Z,12.40
2017-10-27T16:52:43.999Z,12.40
2017-10-27T16:55:11.562Z,12.30
2017-10-27T16:57:39.117Z,12.20
2017-10-27T17:00:06.658Z,12.00
2017-10-27T17:02:34.308Z,12.00
2017-10-27T17:05:01.842Z,11.80
2017-10-27T17:07:29.419Z,11.80
2017-10-27T17:09:57.926Z,11.70
2017-10-27T17:12:26.367Z,11.80
2017-10-27T17:14:54.001Z,11.80
2017-10-27T17:17:22.328Z,11.50
2017-10-27T17:19:49.990Z,11.50
2017-10-27T17:22:17.536Z,11.40
2017-10-27T17:24:45.131Z,11.40
2017-10-27T17:27:12.717Z,11.30
2017-10-27T17:29:40.280Z,11.30
2017-10-27T17:32:08.610Z,11.20
2017-10-27T17:34:36.170Z,11.20
2017-10-27T17:37:03.722Z,11.20
2017-10-27T17:39:31.569Z,11.10
2017-10-27T17:41:59.096Z,11.10
2017-10-27T17:44:27.507Z,11.10
2017-10-27T17:46:55.064Z,11.10
2017-10-27T17:49:22.570Z,11.10
2017-10-27T17:51:51.184Z,11.00
2017-10-27T17:54:19.541Z,11.00
2017-10-27T17:56:47.864Z,11.10
2017-10-27T17:59:15.472Z,11.10
2017-10-27T18:01:43.166Z,11.00
2017-10-27T18:04:11.451Z,10.90
2017-10-27T18:06:39.094Z,10.90
2017-10-27T18:09:06.680Z,10.90
2017-10-27T18:11:34.212Z,11.10
2017-10-27T18:14:01.722Z,11.00
2017-10-27T18:16:29.380Z,10.90
2017-10-27T18:18:57.926Z,10.80
2017-10-27T18:21:25.454Z,10.70
2017-10-27T18:23:53.794Z,10.60
2017-10-27T18:26:21.355Z,10.60
2017-10-27T18:28:48.977Z,10.50
2017-10-27T18:31:16.536Z,10.60
2017-10-27T18:33:44.083Z,10.50
2017-10-27T18:36:11.664Z,10.40
2017-10-27T18:38:39.238Z,10.30
2017-10-27T18:41:06.778Z,10.30
2017-10-27T18:43:34.382Z,10.40
2017-10-27T18:46:01.922Z,10.30
2017-10-27T18:48:29.505Z,10.30
2017-10-27T18:50:57.092Z,10.40
2017-10-27T18:53:24.622Z,10.80
2017-10-27T18:55:53.045Z,10.40
2017-10-27T18:58:20.644Z,10.40
2017-10-27T19:00:48.976Z,10.30
2017-10-27T19:03:16.538Z,10.30
2017-10-27T19:05:44.121Z,10.20
2017-10-27T19:08:11.654Z,10.20
2017-10-27T19:10:39.205Z,10.10
2017-10-27T19:13:06.915Z,10.10
2017-10-27T19:15:34.525Z,10.10
2017-10-27T19:18:02.073Z,10.10
2017-10-27T19:20:29.857Z,10.10
2017-10-27T19:22:57.506Z,10.00
2017-10-27T19:25:25.090Z,10.00
2017-10-27T19:27:52.628Z,10.00
2017-10-27T19:30:20.193Z,10.00
2017-10-27T19:32:47.756Z,10.10
2017-10-27T19:35:15.330Z,10.20
2017-10-27T19:37:42.893Z,10.20
2017-10-27T19:40:10.538Z,10.20
2017-10-27T19:42:38.102Z,10.40
2017-10-27T19:45:05.675Z,10.30
2017-10-27T19:47:33.224Z,10.30
2017-10-27T19:50:00.804Z,10.30
2017-10-27T19:52:28.400Z,10.40
2017-10-27T19:54:55.948Z,10.40
2017-10-27T19:57:23.510Z,10.40
2017-10-27T19:59:51.046Z,10.40
2017-10-27T20:02:19.428Z,10.40
2017-10-27T20:04:47.961Z,10.40
2017-10-27T20:07:15.535Z,10.40
2017-10-27T20:09:43.087Z,10.50
2017-10-27T20:12:10.657Z,10.50
2017-10-27T20:14:38.230Z,10.50
2017-10-27T20:17:06.620Z,10.50
2017-10-27T20:19:34.131Z,10.50
2017-10-27T20:22:01.766Z,10.50
2017-10-27T20:24:29.292Z,10.50
2017-10-27T20:26:57.650Z,10.50
2017-10-27T20:29:25.207Z,10.50
2017-10-27T20:31:52.741Z,10.50
2017-10-27T20:34:20.316Z,10.50
2017-10-27T20:36:48.714Z,10.50
2017-10-27T20:39:17.068Z,10.50
2017-10-27T20:41:44.806Z,10.50
2017-10-27T20:44:12.406Z,10.50
2017-10-27T20:46:39.977Z,10.50
2017-10-27T20:49:08.324Z,10.40
2017-10-27T20:51:36.710Z,10.40
2017-10-27T20:54:04.282Z,10.40
2017-10-27T20:56:31.880Z,10.40
2017-10-27T20:58:59.413Z,10.40
2017-10-27T21:01:26.978Z,10.40
2017-10-27T21:03:55.370Z,10.40
2017-10-27T21:06:22.951Z,10.40
2017-10-27T21:08:50.577Z,10.40
2017-10-27T21:11:18.140Z,10.40
2017-10-27T21:13:45.708Z,10.40
2017-10-27T21:16:13.236Z,10.40
2017-10-27T21:18:41.570Z,10.40
2017-10-27T21:21:09.249Z,10.40
2017-10-27T21:23:37.631Z,10.40
2017-10-27T21:26:05.169Z,10.40
2017-10-27T21:28:32.812Z,10.40
2017-10-27T21:31:00.460Z,10.40
2017-10-27T21:33:27.997Z,10.40
2017-10-27T21:35:56.279Z,10.50
2017-10-27T21:38:23.938Z,10.50
2017-10-27T21:40:51.524Z,10.60
2017-10-27T21:43:19.056Z,10.60
2017-10-27T21:45:46.628Z,10.50
2017-10-27T21:48:14.153Z,10.50
2017-10-27T21:50:42.556Z,10.50
2017-10-27T21:53:10.105Z,10.50
2017-10-27T21:55:37.732Z,10.50
2017-10-27T21:58:05.347Z,10.60
2017-10-27T22:00:32.893Z,10.50
2017-10-27T22:03:00.447Z,10.50
2017-10-27T22:05:28.026Z,10.50
2017-10-27T22:07:55.574Z,10.50
2017-10-27T22:10:23.116Z,10.50
2017-10-27T22:12:50.691Z,10.50
2017-10-27T22:15:18.214Z,10.50
2017-10-27T22:17:46.514Z,10.40
2017-10-27T22:20:14.046Z,10.40
2017-10-27T22:22:42.365Z,10.30
2017-10-27T22:25:09.961Z,10.30
2017-10-27T22:27:37.500Z,10.30
2017-10-27T22:30:05.053Z,10.30
2017-10-27T22:32:32.598Z,10.30
2017-10-27T22:35:00.198Z,10.20
2017-10-27T22:37:27.735Z,10.10
2017-10-27T22:39:55.272Z,10.00
2017-10-27T22:42:22.823Z,10.00
2017-10-27T22:44:50.420Z,10.00
2017-10-27T22:47:18.046Z,9.90
2017-10-27T22:49:45.619Z,9.90
2017-10-27T22:52:13.199Z,9.90
2017-10-27T22:54:40.760Z,9.90
2017-10-27T22:57:08.318Z,9.90
2017-10-27T22:59:35.858Z,9.90
2017-10-27T23:02:03.373Z,9.90
2017-10-27T23:04:30.980Z,9.90
2017-10-27T23:06:58.589Z,9.80
2017-10-27T23:09:26.161Z,9.80
2017-10-27T23:11:53.684Z,9.80
2017-10-27T23:14:22.021Z,9.70
2017-10-27T23:16:49.555Z,9.70
2017-10-27T23:19:17.112Z,9.70
2017-10-27T23:21:44.666Z,9.70
2017-10-27T23:24:12.197Z,9.70
2017-10-27T23:26:40.531Z,9.60
2017-10-27T23:29:08.095Z,9.60
2017-10-27T23:31:35.671Z,9.60
2017-10-27T23:34:03.196Z,9.70
2017-10-27T23:36:30.757Z,9.60
2017-10-27T23:38:58.309Z,9.60
2017-10-27T23:41:26.056Z,9.60
2017-10-27T23:43:53.647Z,9.70
2017-10-27T23:46:21.204Z,9.60
2017-10-27T23:48:49.931Z,9.60
2017-10-27T23:51:18.244Z,9.60
2017-10-27T23:53:45.808Z,9.60
2017-10-27T23:56:13.350Z,9.50
